Time;durP1;ratioP1;P1;durP2;ratioP2;P2;SDS_P1;SDS_P2;PMS_P1;PMS_P2;Temp;Humidity;BMP_temperature;BMP_pressure;BME280_temperature;BME280_humidity;BME280_pressure;Samples;Min_cycle;Max_cycle;Signal;HPM_P1;HPM_P2
2024/03/07 00:01:44;;;;;;;8.10;7.00;;;;;;;-0.50;87.84;101158.77;87180;275;135651;-71
2024/03/07 00:03:46;;;;;;;11.70;7.90;;;;;;;-0.48;87.83;101153.54;87367;278;22568;-70
2024/03/07 00:05:48;;;;;;;8.70;7.70;;;;;;;-0.44;87.86;101152.95;87120;272;138051;-68
2024/03/07 00:07:53;;;;;;;8.10;6.80;;;;;;;-0.40;87.86;101149.89;87068;271;25199;-69
2024/03/07 00:09:55;;;;;;;10.60;8.30;;;;;;;-0.34;87.59;101153.20;87034;271;135570;-71
2024/03/07 00:11:57;;;;;;;10.00;7.50;;;;;;;-0.34;87.74;101151.28;87328;278;25172;-70
2024/03/07 00:14:00;;;;;;;11.00;8.00;;;;;;;-0.35;87.37;101146.13;87273;271;135585;-72
2024/03/07 00:16:03;;;;;;;12.00;8.50;;;;;;;-0.38;87.24;101146.63;87386;278;22581;-71
2024/03/07 00:18:05;;;;;;;10.10;7.60;;;;;;;-0.38;87.31;101143.69;87357;275;22518;-69
2024/03/07 00:20:09;;;;;;;11.20;8.10;;;;;;;-0.39;87.42;101146.38;87289;275;136194;-70
2024/03/07 00:22:11;;;;;;;9.80;7.50;;;;;;;-0.40;87.35;101142.91;87378;274;22971;-71
2024/03/07 00:24:16;;;;;;;12.90;8.80;;;;;;;-0.40;87.59;101147.30;87291;274;136043;-70
2024/03/07 00:26:17;;;;;;;10.80;8.10;;;;;;;-0.41;87.70;101147.52;87461;278;22648;-70
2024/03/07 00:28:19;;;;;;;8.20;7.40;;;;;;;-0.43;87.60;101148.88;87290;266;137799;-69
2024/03/07 00:30:21;;;;;;;9.80;8.00;;;;;;;-0.44;87.96;101144.20;87316;269;25204;-70
2024/03/07 00:32:24;;;;;;;11.60;7.10;;;;;;;-0.43;87.91;101144.70;87208;266;135980;-70
2024/03/07 00:34:26;;;;;;;9.40;7.80;;;;;;;-0.40;87.80;101143.63;87395;270;24026;-70
2024/03/07 00:36:29;;;;;;;9.50;8.30;;;;;;;-0.33;87.45;101142.52;87276;267;136426;-69
2024/03/07 00:38:31;;;;;;;10.10;7.60;;;;;;;-0.28;87.18;101140.77;87329;270;22552;-69
2024/03/07 00:40:33;;;;;;;13.70;8.40;;;;;;;-0.24;86.73;101142.63;87169;277;138420;-71
2024/03/07 00:42:34;;;;;;;9.10;7.70;;;;;;;-0.24;86.56;101144.02;87117;270;24905;-68
2024/03/07 00:44:37;;;;;;;8.80;6.20;;;;;;;-0.28;86.70;101146.51;87176;270;135871;-69
2024/03/07 00:46:40;;;;;;;8.00;7.10;;;;;;;-0.30;86.50;101143.01;87368;270;25390;-70
2024/03/07 00:48:42;;;;;;;9.00;7.00;;;;;;;-0.33;86.20;101140.59;87164;266;136187;-68
2024/03/07 00:50:44;;;;;;;9.50;7.70;;;;;;;-0.36;86.19;101143.36;87219;277;22641;-72
2024/03/07 00:52:48;;;;;;;7.90;7.10;;;;;;;-0.42;86.46;101146.52;87181;270;136004;-68
2024/03/07 00:54:50;;;;;;;7.90;6.60;;;;;;;-0.46;86.28;101143.80;87409;267;22589;-70
2024/03/07 00:56:51;;;;;;;8.60;6.70;;;;;;;-0.50;86.61;101148.28;87250;277;136221;-71
2024/03/07 00:58:54;;;;;;;8.40;6.90;;;;;;;-0.53;86.70;101141.98;87307;262;22639;-70
2024/03/07 01:00:56;;;;;;;9.50;7.00;;;;;;;-0.55;86.82;101140.95;87222;271;136258;-70
2024/03/07 01:02:58;;;;;;;8.80;7.40;;;;;;;-0.59;86.99;101140.09;87504;270;25218;-72
2024/03/07 01:05:00;;;;;;;9.00;7.40;;;;;;;-0.58;87.05;101143.38;87205;266;136355;-72
2024/03/07 01:07:03;;;;;;;8.30;6.30;;;;;;;-0.52;87.10;101138.16;87318;270;22586;-70
2024/03/07 01:09:05;;;;;;;8.30;7.40;;;;;;;-0.48;87.10;101138.02;87331;279;136904;-70
2024/03/07 01:11:09;;;;;;;8.70;7.40;;;;;;;-0.44;86.92;101134.63;87360;274;23695;-72
2024/03/07 01:13:18;;;;;;;8.90;7.90;;;;;;;-0.43;86.94;101137.16;87223;269;137698;-71
2024/03/07 01:15:21;;;;;;;8.40;7.50;;;;;;;-0.42;87.11;101140.25;87428;266;22558;-70
2024/03/07 01:17:24;;;;;;;9.40;6.90;;;;;;;-0.42;86.98;101137.27;87336;274;136310;-71
2024/03/07 01:19:28;;;;;;;9.20;7.20;;;;;;;-0.41;86.78;101138.25;87545;267;22577;-70
2024/03/07 01:21:30;;;;;;;10.80;7.30;;;;;;;-0.42;86.83;101134.16;87431;269;137621;-71
2024/03/07 01:23:34;;;;;;;9.40;8.10;;;;;;;-0.45;86.93;101134.84;87237;263;23746;-70
2024/03/07 01:25:36;;;;;;;8.80;7.30;;;;;;;-0.47;86.90;101133.06;87170;279;136400;-70
2024/03/07 01:27:38;;;;;;;10.10;7.80;;;;;;;-0.49;86.85;101132.52;87182;279;23740;-70
2024/03/07 01:29:41;;;;;;;12.30;7.80;;;;;;;-0.50;87.07;101133.66;87257;267;136380;-73
2024/03/07 01:31:43;;;;;;;10.40;7.70;;;;;;;-0.51;86.71;101141.39;87383;274;25116;-72
2024/03/07 01:33:45;;;;;;;8.70;7.10;;;;;;;-0.51;86.61;101138.43;87189;274;136950;-70
2024/03/07 01:35:47;;;;;;;8.40;7.00;;;;;;;-0.47;86.41;101138.50;87351;272;23999;-70
2024/03/07 01:37:49;;;;;;;9.10;8.10;;;;;;;-0.44;86.32;101134.45;87339;267;136764;-70
2024/03/07 01:39:51;;;;;;;10.70;7.00;;;;;;;-0.39;86.54;101139.74;87330;271;25299;-69
2024/03/07 01:41:53;;;;;;;7.90;7.20;;;;;;;-0.38;86.33;101135.64;87141;274;137906;-71
2024/03/07 01:43:55;;;;;;;8.80;7.60;;;;;;;-0.40;86.64;101131.77;87316;271;22559;-70
2024/03/07 01:46:00;;;;;;;9.40;7.20;;;;;;;-0.43;86.77;101130.73;87123;270;136002;-70
2024/03/07 01:48:06;;;;;;;7.20;6.30;;;;;;;-0.46;86.99;101130.89;87274;269;22576;-69
2024/03/07 01:50:09;;;;;;;9.80;8.40;;;;;;;-0.47;87.13;101132.02;87421;271;25220;-73
2024/03/07 01:52:12;;;;;;;10.80;8.00;;;;;;;-0.49;87.07;101130.58;87226;269;137674;-70
2024/03/07 01:54:15;;;;;;;9.00;8.00;;;;;;;-0.52;87.41;101128.50;87426;271;24161;-71
2024/03/07 01:56:18;;;;;;;8.90;7.20;;;;;;;-0.51;87.46;101130.02;87295;267;136361;-70
2024/03/07 01:58:21;;;;;;;9.60;7.40;;;;;;;-0.50;87.23;101128.02;87377;278;25181;-74
2024/03/07 02:00:22;;;;;;;9.50;7.30;;;;;;;-0.49;87.10;101133.58;87142;267;137775;-70
2024/03/07 02:02:24;;;;;;;10.40;8.00;;;;;;;-0.48;87.10;101128.05;87266;267;22698;-70
2024/03/07 02:04:26;;;;;;;11.10;6.70;;;;;;;-0.43;86.89;101130.17;87183;274;137945;-70
2024/03/07 02:06:28;;;;;;;7.30;6.50;;;;;;;-0.36;86.83;101133.98;87606;273;25092;-70
2024/03/07 02:08:31;;;;;;;7.60;6.80;;;;;;;-0.35;86.35;101130.96;87181;277;136899;-70
2024/03/07 02:10:33;;;;;;;8.10;7.10;;;;;;;-0.37;86.53;101132.45;87347;269;22765;-70
2024/03/07 02:12:36;;;;;;;10.40;7.60;;;;;;;-0.43;86.72;101132.82;87186;269;140121;-71
2024/03/07 02:14:37;;;;;;;7.70;6.10;;;;;;;-0.47;86.86;101131.48;87266;271;22584;-71
2024/03/07 02:16:39;;;;;;;9.40;8.40;;;;;;;-0.47;87.27;101136.20;87198;278;136284;-69
2024/03/07 02:18:41;;;;;;;8.30;6.80;;;;;;;-0.46;87.06;101137.18;87332;269;24036;-69
2024/03/07 02:20:45;;;;;;;9.20;7.30;;;;;;;-0.45;86.68;101137.69;87249;274;136178;-70
2024/03/07 02:22:47;;;;;;;8.50;7.60;;;;;;;-0.48;86.93;101138.73;87446;266;23481;-68
2024/03/07 02:24:49;;;;;;;10.50;7.70;;;;;;;-0.50;87.04;101139.73;87195;277;136517;-70
2024/03/07 02:26:52;;;;;;;9.00;6.50;;;;;;;-0.51;87.16;101137.33;87263;277;24000;-69
2024/03/07 02:28:53;;;;;;;8.30;7.30;;;;;;;-0.53;87.10;101135.73;87350;266;136222;-70
2024/03/07 02:30:56;;;;;;;11.40;8.50;;;;;;;-0.55;87.14;101137.06;87267;278;22630;-70
2024/03/07 02:33:06;;;;;;;9.50;7.70;;;;;;;-0.54;87.11;101137.55;87245;271;136904;-68
2024/03/07 02:35:08;;;;;;;10.30;7.80;;;;;;;-0.52;87.13;101136.90;87426;278;25107;-71
2024/03/07 02:37:10;;;;;;;9.80;8.20;;;;;;;-0.49;87.11;101137.39;87158;270;138292;-70
2024/03/07 02:39:12;;;;;;;13.50;8.20;;;;;;;-0.44;86.82;101136.23;87305;270;22557;-72
2024/03/07 02:41:14;;;;;;;9.70;7.60;;;;;;;-0.45;86.73;101135.07;87235;274;136362;-71
2024/03/07 02:43:16;;;;;;;10.40;7.80;;;;;;;-0.53;86.82;101135.77;87414;267;25540;-71
2024/03/07 02:45:17;;;;;;;8.30;7.30;;;;;;;-0.56;86.98;101140.64;87212;266;136173;-71
2024/03/07 02:47:19;;;;;;;11.10;7.20;;;;;;;-0.58;87.11;101138.67;87212;268;22572;-71
2024/03/07 02:49:22;;;;;;;10.20;8.20;;;;;;;-0.58;86.91;101137.77;87277;274;136680;-69
2024/03/07 02:51:24;;;;;;;8.70;7.60;;;;;;;-0.58;86.89;101132.38;87325;271;22568;-69
2024/03/07 02:53:26;;;;;;;9.20;8.20;;;;;;;-0.58;87.10;101131.83;87285;278;136107;-70
2024/03/07 02:55:28;;;;;;;8.90;7.50;;;;;;;-0.56;87.20;101125.98;87278;267;22558;-71
2024/03/07 02:57:30;;;;;;;7.70;6.50;;;;;;;-0.56;87.24;101127.05;87282;266;136647;-70
2024/03/07 02:59:32;;;;;;;8.80;7.10;;;;;;;-0.55;87.33;101128.34;87298;271;25155;-70
2024/03/07 03:01:33;;;;;;;9.00;7.20;;;;;;;-0.53;87.00;101132.79;87623;274;137987;-70
2024/03/07 03:03:36;;;;;;;9.80;7.20;;;;;;;-0.52;86.87;101129.52;87335;266;23737;-71
2024/03/07 03:05:38;;;;;;;9.00;6.10;;;;;;;-0.50;86.92;101126.14;87205;269;137847;-69
2024/03/07 03:07:42;;;;;;;10.00;7.90;;;;;;;-0.49;86.63;101125.54;87345;274;24012;-70
2024/03/07 03:09:44;;;;;;;12.60;7.40;;;;;;;-0.52;86.58;101123.94;87355;274;136478;-70
2024/03/07 03:11:45;;;;;;;9.40;7.70;;;;;;;-0.55;86.69;101121.38;87236;269;22560;-68
2024/03/07 03:13:48;;;;;;;7.70;7.00;;;;;;;-0.58;86.66;101125.05;87237;269;136301;-71
2024/03/07 03:15:50;;;;;;;9.20;7.70;;;;;;;-0.61;86.91;101123.98;87295;266;23432;-70
2024/03/07 03:17:52;;;;;;;9.10;7.10;;;;;;;-0.60;87.04;101124.41;87316;274;136387;-70
2024/03/07 03:19:55;;;;;;;10.10;7.90;;;;;;;-0.57;86.81;101121.84;87405;274;26198;-72
2024/03/07 03:21:59;;;;;;;11.40;7.60;;;;;;;-0.55;86.89;101126.64;87280;271;136222;-69
2024/03/07 03:24:02;;;;;;;11.40;9.00;;;;;;;-0.55;86.69;101125.21;87386;270;22586;-70
2024/03/07 03:26:07;;;;;;;10.60;8.30;;;;;;;-0.53;86.64;101127.52;87330;269;25236;-72
2024/03/07 03:28:09;;;;;;;8.80;7.90;;;;;;;-0.52;86.20;101134.26;87229;269;136655;-73
2024/03/07 03:30:14;;;;;;;12.50;9.30;;;;;;;-0.54;85.58;101127.23;87404;269;25086;-71
2024/03/07 03:32:15;;;;;;;9.20;8.00;;;;;;;-0.55;85.51;101130.64;87247;274;137442;-73
2024/03/07 03:34:18;;;;;;;7.30;6.40;;;;;;;-0.53;85.21;101134.51;87313;266;22559;-75
2024/03/07 03:36:20;;;;;;;11.10;7.30;;;;;;;-0.49;84.82;101136.53;87253;270;137107;-72
2024/03/07 03:38:22;;;;;;;8.70;6.90;;;;;;;-0.47;84.53;101137.45;87415;266;22563;-71
2024/03/07 03:40:24;;;;;;;10.10;7.40;;;;;;;-0.50;84.39;101137.62;87330;278;136206;-72
2024/03/07 03:42:26;;;;;;;10.30;7.10;;;;;;;-0.53;84.38;101139.90;87571;262;22523;-73
2024/03/07 03:44:28;;;;;;;11.00;9.50;;;;;;;-0.54;84.48;101137.74;87275;270;136650;-69
2024/03/07 03:46:30;;;;;;;9.50;7.80;;;;;;;-0.59;84.42;101141.30;87474;273;22576;-71
2024/03/07 03:48:31;;;;;;;8.50;7.60;;;;;;;-0.59;84.69;101139.80;87285;277;136243;-71
2024/03/07 03:50:34;;;;;;;10.50;8.80;;;;;;;-0.62;85.13;101140.09;87389;271;24679;-71
2024/03/07 03:52:36;;;;;;;9.80;7.80;;;;;;;-0.62;85.40;101143.12;87199;270;135966;-69
2024/03/07 03:54:37;;;;;;;13.40;8.10;;;;;;;-0.65;85.79;101139.27;87338;270;22655;-73
2024/03/07 03:56:39;;;;;;;8.70;7.80;;;;;;;-0.66;86.15;101146.49;87257;266;136394;-70
2024/03/07 03:58:41;;;;;;;8.10;7.20;;;;;;;-0.65;86.43;101141.35;87253;278;24049;-71
2024/03/07 04:00:43;;;;;;;9.50;7.80;;;;;;;-0.61;86.55;101146.54;87317;269;137760;-70
2024/03/07 04:02:49;;;;;;;12.50;8.10;;;;;;;-0.59;86.43;101143.27;87256;270;26822;-70
2024/03/07 04:04:52;;;;;;;10.90;7.50;;;;;;;-0.58;86.45;101142.65;87263;269;137072;-71
2024/03/07 04:06:55;;;;;;;10.70;8.10;;;;;;;-0.56;86.54;101146.20;87494;274;24014;-70
2024/03/07 04:08:56;;;;;;;12.40;8.20;;;;;;;-0.56;86.60;101146.56;87290;266;136916;-76
2024/03/07 04:10:58;;;;;;;10.80;8.60;;;;;;;-0.55;86.34;101145.13;87362;271;24209;-70
2024/03/07 04:13:00;;;;;;;9.90;8.00;;;;;;;-0.55;85.80;101146.86;87287;269;139017;-71
2024/03/07 04:15:04;;;;;;;12.90;8.40;;;;;;;-0.55;85.98;101147.59;87373;270;25220;-71
2024/03/07 04:17:07;;;;;;;10.70;7.80;;;;;;;-0.57;86.02;101142.29;87347;270;136234;-71
2024/03/07 04:19:09;;;;;;;11.40;8.30;;;;;;;-0.59;86.36;101148.98;87448;270;25139;-69
2024/03/07 04:21:11;;;;;;;12.40;9.30;;;;;;;-0.60;86.52;101147.36;87340;266;136144;-70
2024/03/07 04:23:13;;;;;;;12.30;9.30;;;;;;;-0.62;86.98;101149.40;87433;270;23510;-71
2024/03/07 04:25:15;;;;;;;10.80;9.40;;;;;;;-0.66;87.26;101151.01;87297;277;136951;-74
2024/03/07 04:27:17;;;;;;;10.00;8.20;;;;;;;-0.66;87.28;101152.05;87360;274;25156;-71
2024/03/07 04:29:19;;;;;;;11.00;8.10;;;;;;;-0.64;87.32;101150.05;87229;270;136980;-68
2024/03/07 04:31:21;;;;;;;10.30;7.30;;;;;;;-0.64;87.41;101151.25;87279;266;23773;-70
2024/03/07 04:33:23;;;;;;;8.60;7.40;;;;;;;-0.66;87.44;101151.55;87200;270;137379;-70
2024/03/07 04:35:27;;;;;;;9.90;7.70;;;;;;;-0.70;87.45;101150.38;87405;273;25107;-72
2024/03/07 04:37:29;;;;;;;9.30;8.30;;;;;;;-0.74;87.97;101148.73;87213;274;137627;-72
2024/03/07 04:39:33;;;;;;;9.70;6.80;;;;;;;-0.76;88.16;101151.16;87344;277;24036;-71
2024/03/07 04:41:35;;;;;;;8.80;7.80;;;;;;;-0.76;87.95;101152.33;87261;277;136249;-71
2024/03/07 04:43:37;;;;;;;8.30;7.50;;;;;;;-0.73;87.76;101155.30;87398;266;23645;-71
2024/03/07 04:45:39;;;;;;;10.30;7.70;;;;;;;-0.72;87.30;101157.33;87230;270;136023;-68
2024/03/07 04:47:44;;;;;;;11.70;8.40;;;;;;;-0.75;87.18;101160.69;87250;270;24145;-70
2024/03/07 04:49:46;;;;;;;9.10;8.20;;;;;;;-0.76;87.41;101162.27;87111;270;137377;-71
2024/03/07 04:51:48;;;;;;;8.90;7.80;;;;;;;-0.75;87.33;101162.55;87216;278;22631;-71
2024/03/07 04:53:49;;;;;;;8.40;6.30;;;;;;;-0.71;87.42;101162.83;87117;267;136439;-70
2024/03/07 04:55:51;;;;;;;9.60;8.20;;;;;;;-0.66;86.92;101162.55;87335;277;22584;-69
2024/03/07 04:57:53;;;;;;;8.40;7.50;;;;;;;-0.65;86.89;101167.73;87188;269;136384;-67
2024/03/07 04:59:55;;;;;;;8.70;7.80;;;;;;;-0.69;86.22;101167.81;87322;269;22657;-70
2024/03/07 05:01:57;;;;;;;9.50;7.50;;;;;;;-0.72;85.97;101170.08;87337;277;136040;-69
2024/03/07 05:04:00;;;;;;;9.60;8.10;;;;;;;-0.72;86.03;101169.77;87273;266;23997;-71
2024/03/07 05:06:03;;;;;;;10.90;8.30;;;;;;;-0.72;85.95;101171.33;87280;278;135940;-69
2024/03/07 05:08:05;;;;;;;9.20;7.10;;;;;;;-0.74;85.70;101168.81;87370;278;137793;-71
2024/03/07 05:10:08;;;;;;;10.60;6.80;;;;;;;-0.74;85.45;101168.15;87406;269;22555;-76
2024/03/07 05:12:11;;;;;;;10.20;8.70;;;;;;;-0.77;85.61;101172.12;87257;273;136630;-70
2024/03/07 05:14:12;;;;;;;10.30;8.30;;;;;;;-0.78;85.73;101170.27;87250;273;25185;-69
2024/03/07 05:16:14;;;;;;;9.80;7.50;;;;;;;-0.76;85.78;101169.98;87100;278;136132;-69
2024/03/07 05:18:16;;;;;;;7.90;7.20;;;;;;;-0.75;85.31;101172.20;87339;274;23740;-70
2024/03/07 05:20:18;;;;;;;11.40;8.40;;;;;;;-0.75;84.24;101181.46;87399;271;136640;-71
2024/03/07 05:22:25;;;;;;;11.70;8.30;;;;;;;-0.74;84.05;101178.06;87323;267;22627;-69
2024/03/07 05:24:27;;;;;;;8.30;6.90;;;;;;;-0.71;84.11;101184.31;87257;278;136709;-71
2024/03/07 05:26:40;;;;;;;9.00;7.10;;;;;;;-0.67;84.01;101187.23;87527;267;24135;-69
2024/03/07 05:28:42;;;;;;;10.60;7.60;;;;;;;-0.64;83.76;101189.98;88329;270;137047;-70
2024/03/07 05:30:44;;;;;;;9.10;7.10;;;;;;;-0.63;83.74;101187.33;87276;270;25321;-70
2024/03/07 05:32:47;;;;;;;9.60;7.80;;;;;;;-0.65;83.64;101186.05;87225;278;136214;-68
2024/03/07 05:34:51;;;;;;;8.80;7.90;;;;;;;-0.67;83.65;101190.91;87408;270;22872;-70
2024/03/07 05:36:53;;;;;;;8.60;7.50;;;;;;;-0.69;83.21;101188.41;87424;271;135750;-71
2024/03/07 05:38:54;;;;;;;9.20;7.20;;;;;;;-0.70;83.16;101190.73;87292;267;25114;-72
2024/03/07 05:40:58;;;;;;;7.40;6.70;;;;;;;-0.71;83.48;101193.95;87296;278;136054;-72
2024/03/07 05:43:00;;;;;;;8.30;7.40;;;;;;;-0.72;83.50;101191.40;86850;278;765661;-71
2024/03/07 05:45:07;;;;;;;8.20;7.40;;;;;;;-0.73;83.73;101188.45;87242;271;136572;-70
2024/03/07 05:47:10;;;;;;;9.80;8.20;;;;;;;-0.71;83.87;101191.32;87251;270;25274;-70
2024/03/07 05:49:15;;;;;;;8.50;6.90;;;;;;;-0.70;83.28;101190.33;87159;270;136231;-71
2024/03/07 05:51:17;;;;;;;12.10;8.40;;;;;;;-0.71;83.40;101194.44;87382;277;25319;-71
2024/03/07 05:53:19;;;;;;;10.50;7.10;;;;;;;-0.70;83.35;101194.02;87179;269;136744;-70
2024/03/07 05:55:22;;;;;;;6.80;6.10;;;;;;;-0.67;83.31;101196.46;87229;270;25262;-71
2024/03/07 05:57:25;;;;;;;9.70;8.10;;;;;;;-0.64;82.94;101197.12;87630;271;136438;-71
2024/03/07 05:59:30;;;;;;;7.00;6.10;;;;;;;-0.61;82.78;101198.70;87549;270;22652;-73
2024/03/07 06:01:37;;;;;;;8.30;7.40;;;;;;;-0.64;82.67;101195.55;87085;271;136252;-70
2024/03/07 06:03:39;;;;;;;8.60;7.00;;;;;;;-0.67;82.95;101192.95;87187;270;22785;-74
2024/03/07 06:05:42;;;;;;;10.50;6.90;;;;;;;-0.68;83.12;101193.23;87563;270;136633;-75
2024/03/07 06:07:47;;;;;;;7.60;6.70;;;;;;;-0.70;82.74;101205.05;87708;269;22536;-75
2024/03/07 06:09:50;;;;;;;12.10;7.80;;;;;;;-0.73;82.88;101202.77;87324;277;137254;-73
2024/03/07 06:11:52;;;;;;;12.20;8.00;;;;;;;-0.74;83.25;101206.70;87690;263;23455;-72
2024/03/07 06:13:54;;;;;;;7.40;6.70;;;;;;;-0.75;83.33;101209.88;87667;270;136133;-74
2024/03/07 06:15:55;;;;;;;8.70;7.80;;;;;;;-0.75;83.59;101201.67;87697;274;22536;-75
2024/03/07 06:17:57;;;;;;;7.40;6.60;;;;;;;-0.75;83.80;101206.03;87906;266;136814;-74
2024/03/07 06:19:59;;;;;;;11.80;7.90;;;;;;;-0.73;83.90;101207.34;87782;273;25335;-74
2024/03/07 06:22:01;;;;;;;9.60;7.10;;;;;;;-0.72;83.98;101203.95;87911;266;136829;-74
2024/03/07 06:24:03;;;;;;;8.20;7.30;;;;;;;-0.70;84.11;101203.13;87894;269;136431;-73
2024/03/07 06:26:12;;;;;;;9.60;7.90;;;;;;;-0.66;84.27;101203.23;87699;270;23340;-73
2024/03/07 06:28:14;;;;;;;10.70;8.90;;;;;;;-0.59;84.43;101207.85;87526;275;136648;-74
2024/03/07 06:30:17;;;;;;;9.60;7.90;;;;;;;-0.54;84.81;101208.27;87968;270;25235;-73
2024/03/07 06:32:19;;;;;;;9.60;8.50;;;;;;;-0.52;85.29;101207.27;87744;274;138392;-76
2024/03/07 06:34:21;;;;;;;11.10;8.20;;;;;;;-0.48;85.23;101206.63;87686;270;22558;-77
2024/03/07 06:36:25;;;;;;;7.90;6.80;;;;;;;-0.44;85.42;101206.92;87787;269;136511;-76
2024/03/07 06:38:26;;;;;;;9.40;7.40;;;;;;;-0.41;85.35;101202.39;88176;266;22558;-76
2024/03/07 06:40:29;;;;;;;11.80;8.80;;;;;;;-0.42;85.50;101203.96;87495;269;135939;-74
2024/03/07 06:42:33;;;;;;;10.60;8.40;;;;;;;-0.41;85.59;101209.88;87569;269;22529;-75
2024/03/07 06:44:35;;;;;;;9.40;7.80;;;;;;;-0.43;85.82;101209.45;87501;269;136077;-74
2024/03/07 06:46:36;;;;;;;10.80;9.40;;;;;;;-0.43;86.19;101210.36;87212;269;24263;-76
2024/03/07 06:48:40;;;;;;;10.50;8.60;;;;;;;-0.43;86.55;101210.52;87559;261;136148;-76
2024/03/07 06:50:44;;;;;;;12.30;9.30;;;;;;;-0.43;86.91;101210.70;87798;266;24052;-76
2024/03/07 06:52:47;;;;;;;12.00;9.30;;;;;;;-0.43;86.88;101211.70;87512;266;136431;-74
2024/03/07 06:54:49;;;;;;;11.90;9.20;;;;;;;-0.41;87.08;101212.66;87651;278;23806;-76
2024/03/07 06:56:51;;;;;;;8.20;7.30;;;;;;;-0.39;87.34;101211.48;87645;266;136117;-76
2024/03/07 06:58:53;;;;;;;9.40;8.20;;;;;;;-0.36;87.19;101216.08;87624;274;25321;-75
2024/03/07 07:00:54;;;;;;;10.60;8.40;;;;;;;-0.34;87.06;101219.42;87532;262;138023;-74
2024/03/07 07:02:57;;;;;;;11.40;8.70;;;;;;;-0.31;86.94;101221.16;87694;273;22499;-76
2024/03/07 07:04:59;;;;;;;11.50;8.70;;;;;;;-0.28;86.75;101227.90;87629;270;136706;-75
2024/03/07 07:07:01;;;;;;;11.90;9.30;;;;;;;-0.23;86.83;101228.15;87746;269;22494;-76
2024/03/07 07:09:03;;;;;;;12.10;10.00;;;;;;;-0.22;86.60;101225.62;87568;270;136193;-74
2024/03/07 07:11:05;;;;;;;13.70;10.40;;;;;;;-0.25;86.59;101229.47;87553;271;22568;-73
2024/03/07 07:13:07;;;;;;;10.10;8.50;;;;;;;-0.29;86.74;101228.70;87627;266;136214;-74
2024/03/07 07:15:10;;;;;;;15.60;10.30;;;;;;;-0.33;86.89;101227.00;87555;266;25088;-73
2024/03/07 07:17:13;;;;;;;12.20;9.90;;;;;;;-0.37;86.83;101231.14;87521;269;136362;-78
2024/03/07 07:19:15;;;;;;;9.80;8.20;;;;;;;-0.41;87.33;101230.63;87568;269;22635;-77
2024/03/07 07:21:17;;;;;;;11.20;8.70;;;;;;;-0.40;87.54;101233.23;87566;275;135894;-73
2024/03/07 07:23:20;;;;;;;12.00;9.30;;;;;;;-0.38;87.31;101234.52;87958;269;22566;-77
2024/03/07 07:25:22;;;;;;;11.40;9.90;;;;;;;-0.38;87.20;101236.75;87753;271;136141;-74
2024/03/07 07:27:24;;;;;;;8.50;7.70;;;;;;;-0.37;86.82;101241.44;87603;273;25159;-74
2024/03/07 07:29:26;;;;;;;12.10;8.80;;;;;;;-0.39;86.46;101236.14;87623;269;135980;-75
2024/03/07 07:31:28;;;;;;;12.50;9.10;;;;;;;-0.39;86.48;101232.46;87583;274;22559;-75
2024/03/07 07:33:31;;;;;;;11.40;9.30;;;;;;;-0.38;86.56;101238.33;87625;270;136473;-76
2024/03/07 07:35:34;;;;;;;10.30;9.00;;;;;;;-0.34;86.18;101240.69;87919;266;23240;-74
2024/03/07 07:37:45;;;;;;;10.00;8.00;;;;;;;-0.31;86.08;101237.05;87698;270;136588;-76
2024/03/07 07:39:47;;;;;;;10.30;8.50;;;;;;;-0.27;86.08;101240.27;87695;270;25199;-76
2024/03/07 07:41:49;;;;;;;8.70;7.80;;;;;;;-0.23;85.80;101238.23;87555;274;136996;-78
2024/03/07 07:43:51;;;;;;;11.60;8.30;;;;;;;-0.20;85.36;101236.88;87512;279;22686;-75
2024/03/07 07:45:52;;;;;;;10.00;9.00;;;;;;;-0.21;85.66;101239.22;87528;270;135587;-74
2024/03/07 07:47:54;;;;;;;11.80;8.80;;;;;;;-0.21;85.82;101239.54;87610;261;23033;-74
2024/03/07 07:49:57;;;;;;;11.50;9.00;;;;;;;-0.19;85.82;101241.50;87672;269;136035;-76
2024/03/07 07:51:58;;;;;;;11.70;9.30;;;;;;;-0.17;85.74;101240.67;88042;274;22843;-72
2024/03/07 07:54:02;;;;;;;11.40;9.60;;;;;;;-0.13;85.67;101242.38;87671;269;136015;-74
2024/03/07 07:56:04;;;;;;;11.20;8.60;;;;;;;-0.11;85.43;101241.36;87670;269;136354;-72
2024/03/07 07:58:07;;;;;;;9.80;8.80;;;;;;;-0.10;84.99;101246.52;87551;267;22559;-75
2024/03/07 08:00:11;;;;;;;10.60;8.90;;;;;;;-0.13;84.76;101244.82;87565;266;135966;-74
2024/03/07 08:02:13;;;;;;;12.40;8.80;;;;;;;-0.18;84.67;101249.33;87777;271;22629;-75
2024/03/07 08:04:15;;;;;;;12.30;9.80;;;;;;;-0.22;84.74;101247.14;87497;272;136100;-74
2024/03/07 08:06:17;;;;;;;9.20;8.20;;;;;;;-0.23;84.91;101245.11;87895;270;22609;-75
2024/03/07 08:08:20;;;;;;;10.60;9.40;;;;;;;-0.26;84.95;101244.06;87686;270;136941;-75
2024/03/07 08:10:30;;;;;;;9.30;8.40;;;;;;;-0.26;85.13;101250.33;87679;270;22590;-74
2024/03/07 08:12:32;;;;;;;9.20;7.50;;;;;;;-0.23;84.56;101245.96;87577;270;137607;-75
2024/03/07 08:14:34;;;;;;;8.80;7.90;;;;;;;-0.20;83.93;101247.14;87777;269;22554;-74
2024/03/07 08:16:36;;;;;;;8.90;7.70;;;;;;;-0.16;83.99;101245.73;87567;277;136578;-76
2024/03/07 08:18:40;;;;;;;10.80;7.80;;;;;;;-0.14;84.03;101247.66;87909;277;24402;-70
2024/03/07 08:20:43;;;;;;;8.50;7.00;;;;;;;-0.09;84.00;101246.14;86924;266;136823;-69
2024/03/07 08:22:45;;;;;;;6.40;5.80;;;;;;;-0.06;83.30;101245.58;87249;270;22809;-70
2024/03/07 08:24:47;;;;;;;7.00;6.30;;;;;;;-0.06;82.50;101245.92;87010;271;136399;-71
2024/03/07 08:26:49;;;;;;;6.70;5.50;;;;;;;-0.05;82.15;101246.02;87102;263;22549;-71
2024/03/07 08:28:50;;;;;;;7.80;6.80;;;;;;;-0.02;81.89;101246.05;86985;278;135863;-70
2024/03/07 08:30:52;;;;;;;7.80;6.90;;;;;;;0.00;81.72;101245.56;87055;266;22665;-71
2024/03/07 08:32:55;;;;;;;7.50;6.70;;;;;;;0.03;81.64;101247.50;86952;277;136031;-67
2024/03/07 08:34:58;;;;;;;9.40;7.60;;;;;;;0.03;81.35;101249.77;87407;266;22568;-68
2024/03/07 08:37:00;;;;;;;9.70;7.10;;;;;;;0.05;81.66;101247.89;87053;267;136209;-69
2024/03/07 08:39:03;;;;;;;14.30;8.10;;;;;;;0.04;81.50;101248.79;87309;274;25079;-67
2024/03/07 08:41:05;;;;;;;10.90;8.10;;;;;;;0.02;81.82;101253.16;87140;274;136006;-70
2024/03/07 08:43:08;;;;;;;13.30;7.80;;;;;;;0.02;82.04;101252.23;87057;274;25220;-70
2024/03/07 08:45:10;;;;;;;9.30;8.30;;;;;;;0.06;81.71;101254.98;87579;270;136629;-72
2024/03/07 08:47:12;;;;;;;9.50;8.10;;;;;;;0.07;81.82;101254.39;87215;269;25240;-70
2024/03/07 08:49:16;;;;;;;8.40;7.50;;;;;;;0.06;81.15;101251.13;87341;266;135861;-70
2024/03/07 08:51:18;;;;;;;9.90;8.00;;;;;;;0.00;81.06;101258.82;87187;270;24065;-72
2024/03/07 08:53:20;;;;;;;9.90;8.90;;;;;;;-0.06;81.02;101253.59;87311;266;137125;-70
2024/03/07 08:55:24;;;;;;;10.40;9.10;;;;;;;-0.08;81.55;101255.19;87145;274;24862;-70
2024/03/07 08:57:26;;;;;;;12.30;9.20;;;;;;;-0.09;82.01;101252.77;87115;274;136686;-72
2024/03/07 08:59:29;;;;;;;10.60;9.20;;;;;;;-0.06;82.18;101251.39;87633;270;25079;-74
2024/03/07 09:01:31;;;;;;;9.70;8.60;;;;;;;-0.05;81.72;101259.15;87120;269;136227;-71
2024/03/07 09:03:33;;;;;;;8.30;7.50;;;;;;;-0.07;81.73;101254.91;87171;270;25089;-73
2024/03/07 09:05:35;;;;;;;9.00;7.60;;;;;;;-0.07;81.70;101254.23;87508;270;136630;-74
2024/03/07 09:07:38;;;;;;;8.30;7.50;;;;;;;-0.11;82.28;101252.58;87605;270;25057;-69
2024/03/07 09:09:39;;;;;;;7.60;6.60;;;;;;;-0.13;82.21;101254.63;86962;266;136815;-73
2024/03/07 09:11:42;;;;;;;10.30;7.60;;;;;;;-0.15;82.11;101259.42;87770;266;22658;-71
2024/03/07 09:13:46;;;;;;;8.30;7.40;;;;;;;-0.14;82.12;101258.14;87500;270;137249;-72
2024/03/07 09:15:48;;;;;;;9.30;7.80;;;;;;;-0.11;81.94;101256.58;87579;278;22552;-71
2024/03/07 09:17:50;;;;;;;11.10;8.10;;;;;;;-0.07;81.90;101256.34;87161;269;136189;-80
2024/03/07 09:19:52;;;;;;;9.40;7.00;;;;;;;-0.03;81.42;101253.27;87765;269;22533;-80
2024/03/07 09:21:54;;;;;;;10.10;7.20;;;;;;;0.02;81.09;101256.64;87652;269;137480;-75
2024/03/07 09:23:56;;;;;;;8.70;7.90;;;;;;;0.05;80.22;101257.31;87674;269;22577;-81
2024/03/07 09:25:58;;;;;;;8.90;7.90;;;;;;;0.05;79.50;101258.20;87787;266;136105;-81
2024/03/07 09:28:01;;;;;;;9.70;7.50;;;;;;;0.02;79.49;101260.11;87701;269;24059;-79
2024/03/07 09:30:04;;;;;;;11.20;7.70;;;;;;;0.01;79.40;101260.55;87550;266;137385;-77
2024/03/07 09:32:09;;;;;;;10.20;7.40;;;;;;;-0.00;79.54;101264.27;87531;266;136430;-76